createdAt,value
2019-01-16T00:01:12.324Z,7.30
2019-01-16T00:04:02.549Z,7.30
2019-01-16T00:06:58.991Z,7.30
2019-01-16T00:09:45.925Z,7.30
2019-01-16T00:12:33.051Z,7.20
2019-01-16T00:15:09.205Z,7.20
2019-01-16T00:18:02.542Z,7.20
2019-01-16T00:20:59.008Z,7.30
2019-01-16T00:23:46.180Z,7.30
2019-01-16T00:26:34.739Z,7.30
2019-01-16T00:29:20.441Z,7.30
2019-01-16T00:32:06.500Z,7.40
2019-01-16T00:34:52.600Z,7.40
2019-01-16T00:37:54.809Z,7.40
2019-01-16T00:40:34.765Z,7.40
2019-01-16T00:43:32.344Z,7.30
2019-01-16T00:46:09.493Z,7.40
2019-01-16T00:48:52.296Z,7.40
2019-01-16T00:51:49.713Z,7.50
2019-01-16T00:54:54.908Z,7.50
2019-01-16T00:57:47.399Z,7.50
2019-01-16T01:00:35.373Z,7.40
2019-01-16T01:03:13.952Z,7.50
2019-01-16T01:06:01.088Z,7.50
2019-01-16T01:08:42.609Z,7.60
2019-01-16T01:11:24.337Z,7.70
2019-01-16T01:14:23.579Z,7.60
2019-01-16T01:17:06.812Z,7.60
2019-01-16T01:19:52.389Z,7.60
2019-01-16T01:22:38.897Z,7.60
2019-01-16T01:25:26.387Z,7.60
2019-01-16T01:28:10.897Z,7.60
2019-01-16T01:31:03.788Z,7.50
2019-01-16T01:33:49.684Z,7.50
2019-01-16T01:36:35.496Z,7.60
2019-01-16T01:39:32.916Z,7.70
2019-01-16T01:42:24.769Z,7.60
2019-01-16T01:45:26.792Z,7.60
2019-01-16T01:48:13.912Z,7.60
2019-01-16T01:50:59.458Z,7.70
2019-01-16T01:53:39.046Z,7.60
2019-01-16T01:56:26.332Z,7.60
2019-01-16T01:59:13.238Z,7.70
2019-01-16T02:01:53.028Z,7.70
2019-01-16T02:04:31.079Z,7.70
2019-01-16T02:07:16.802Z,7.70
2019-01-16T02:10:09.528Z,7.80
2019-01-16T02:12:55.373Z,7.80
2019-01-16T02:15:41.373Z,7.90
2019-01-16T02:18:28.495Z,7.80
2019-01-16T02:21:34.065Z,7.80
2019-01-16T02:24:30.038Z,7.80
2019-01-16T02:27:17.166Z,7.80
2019-01-16T02:30:03.336Z,7.80
2019-01-16T02:32:59.567Z,7.80
2019-01-16T02:35:44.746Z,7.80
2019-01-16T02:38:23.014Z,7.70
2019-01-16T02:41:10.676Z,7.80
2019-01-16T02:43:59.354Z,7.80
2019-01-16T02:46:50.361Z,7.80
2019-01-16T02:49:36.224Z,7.80
2019-01-16T02:52:22.506Z,7.70
2019-01-16T02:55:08.025Z,7.70
2019-01-16T02:57:57.018Z,7.70
2019-01-16T03:00:38.842Z,7.70
2019-01-16T03:03:35.206Z,7.60
2019-01-16T03:06:19.244Z,7.60
2019-01-16T03:09:01.120Z,7.60
2019-01-16T03:11:36.653Z,7.70
2019-01-16T03:14:35.931Z,7.60
2019-01-16T03:17:15.903Z,7.60
2019-01-16T03:19:59.696Z,7.60
2019-01-16T03:22:45.467Z,7.60
2019-01-16T03:25:25.198Z,7.60
2019-01-16T03:28:27.143Z,7.50
2019-01-16T03:31:14.246Z,7.50
2019-01-16T03:33:59.763Z,7.50
2019-01-16T03:36:45.279Z,7.50
2019-01-16T03:39:32.361Z,7.40
2019-01-16T03:42:23.394Z,7.30
2019-01-16T03:45:01.282Z,7.40
2019-01-16T03:47:47.127Z,7.40
2019-01-16T03:50:26.369Z,7.40
2019-01-16T03:53:13.138Z,7.40
2019-01-16T03:56:06.650Z,7.30
2019-01-16T03:58:52.352Z,7.30
2019-01-16T04:01:41.926Z,7.30
2019-01-16T04:04:23.878Z,7.30
2019-01-16T04:07:13.934Z,7.30
2019-01-16T04:09:59.992Z,7.30
2019-01-16T04:12:40.660Z,7.30
2019-01-16T04:15:29.935Z,7.30
2019-01-16T04:18:19.820Z,7.30
2019-01-16T04:21:04.629Z,7.30
2019-01-16T04:23:51.704Z,7.40
2019-01-16T04:26:40.276Z,7.40
2019-01-16T04:29:42.714Z,7.40
2019-01-16T04:32:21.843Z,7.40
2019-01-16T04:35:07.592Z,7.40
2019-01-16T04:38:00.833Z,7.40
2019-01-16T04:40:50.877Z,7.30
2019-01-16T04:43:37.031Z,7.40
2019-01-16T04:46:34.957Z,7.30
2019-01-16T04:49:11.580Z,7.40
2019-01-16T04:51:57.637Z,7.40
2019-01-16T04:54:50.810Z,7.30
2019-01-16T04:57:28.948Z,7.40
2019-01-16T05:00:15.711Z,7.40
2019-01-16T05:02:54.574Z,7.40
2019-01-16T05:05:41.473Z,7.40
2019-01-16T05:08:43.763Z,7.40
2019-01-16T05:11:30.772Z,7.40
2019-01-16T05:14:11.251Z,7.40
2019-01-16T05:16:57.143Z,7.40
2019-01-16T05:19:47.208Z,7.40
2019-01-16T05:22:22.346Z,7.40
2019-01-16T05:25:07.909Z,7.40
2019-01-16T05:27:56.587Z,7.40
2019-01-16T05:31:01.631Z,7.50
2019-01-16T05:33:51.365Z,7.40
2019-01-16T05:36:53.552Z,7.40
2019-01-16T05:39:43.639Z,7.40
2019-01-16T05:42:36.692Z,7.40
2019-01-16T05:45:32.789Z,7.40
2019-01-16T05:48:26.025Z,7.40
2019-01-16T05:51:04.282Z,7.40
2019-01-16T05:53:52.575Z,7.40
2019-01-16T05:56:34.933Z,7.40
2019-01-16T05:59:16.551Z,7.50
2019-01-16T06:02:02.313Z,7.50
2019-01-16T06:04:48.623Z,7.50
2019-01-16T06:07:31.607Z,7.40
2019-01-16T06:10:27.871Z,7.40
2019-01-16T06:13:18.067Z,7.40
2019-01-16T06:15:54.767Z,7.50
2019-01-16T06:18:48.541Z,7.50
2019-01-16T06:21:38.665Z,7.50
2019-01-16T06:24:37.703Z,7.40
2019-01-16T06:27:27.806Z,7.40
2019-01-16T06:30:18.325Z,7.40
2019-01-16T06:33:08.536Z,7.30
2019-01-16T06:35:54.405Z,7.40
2019-01-16T06:38:47.507Z,7.40
2019-01-16T06:41:23.111Z,7.30
2019-01-16T06:44:22.330Z,7.30
2019-01-16T06:47:08.150Z,7.30
2019-01-16T06:50:04.005Z,7.30
2019-01-16T06:53:06.447Z,7.30
2019-01-16T06:55:59.988Z,7.20
2019-01-16T06:58:46.022Z,7.10
2019-01-16T07:01:35.937Z,7.20
2019-01-16T07:04:21.818Z,7.20
2019-01-16T07:07:03.536Z,7.10
2019-01-16T07:09:47.299Z,7.10
2019-01-16T07:12:33.233Z,7.10
2019-01-16T07:15:32.323Z,7.10
2019-01-16T07:18:25.030Z,7.10
2019-01-16T07:21:10.632Z,7.20
2019-01-16T07:23:56.418Z,7.10
2019-01-16T07:26:37.128Z,7.10
2019-01-16T07:29:20.596Z,7.10
2019-01-16T07:32:07.798Z,7.10
2019-01-16T07:35:05.578Z,7.10
2019-01-16T07:37:58.768Z,7.10
2019-01-16T07:40:35.229Z,7.00
2019-01-16T07:43:10.137Z,7.00
2019-01-16T07:45:49.054Z,7.10
2019-01-16T07:48:42.404Z,7.10
2019-01-16T07:51:28.327Z,7.10
2019-01-16T07:54:14.521Z,7.00
2019-01-16T07:56:49.215Z,7.00
2019-01-16T07:59:35.950Z,7.10
2019-01-16T08:02:32.696Z,7.00
2019-01-16T08:05:10.779Z,7.00
2019-01-16T08:07:57.926Z,7.10
2019-01-16T08:10:47.937Z,7.10
2019-01-16T08:13:42.084Z,7.00
2019-01-16T08:16:31.228Z,7.10
2019-01-16T08:19:10.959Z,7.00
2019-01-16T08:21:58.952Z,7.10
2019-01-16T08:24:45.689Z,7.10
2019-01-16T08:27:35.837Z,7.20
2019-01-16T08:30:16.243Z,7.20
2019-01-16T08:33:02.395Z,7.30
2019-01-16T08:35:39.273Z,7.20
2019-01-16T08:38:25.304Z,7.20
2019-01-16T08:41:15.213Z,7.20
2019-01-16T08:44:02.352Z,7.30
2019-01-16T08:46:52.408Z,7.20
2019-01-16T08:49:45.175Z,7.40
2019-01-16T08:52:38.581Z,7.40
2019-01-16T08:55:28.781Z,7.40
2019-01-16T08:58:15.034Z,7.40
2019-01-16T09:00:57.097Z,7.30
2019-01-16T09:03:44.201Z,7.30
2019-01-16T09:06:31.308Z,7.40
2019-01-16T09:09:18.462Z,7.30
2019-01-16T09:12:04.562Z,7.40
2019-01-16T09:14:52.778Z,7.40
2019-01-16T09:17:33.408Z,7.30
2019-01-16T09:20:14.841Z,7.40
2019-01-16T09:23:03.711Z,7.40
2019-01-16T09:25:49.540Z,7.50
2019-01-16T09:28:35.565Z,7.40
2019-01-16T09:31:21.341Z,7.50
2019-01-16T09:34:07.370Z,7.40
2019-01-16T09:36:45.964Z,7.40
2019-01-16T09:39:31.766Z,7.40
2019-01-16T09:42:22.494Z,7.40
2019-01-16T09:45:12.873Z,7.40
2019-01-16T09:48:03.418Z,7.40
2019-01-16T09:50:53.436Z,7.40
2019-01-16T09:53:39.181Z,7.40
2019-01-16T09:56:32.404Z,7.40
2019-01-16T09:59:28.656Z,7.40
2019-01-16T10:02:15.765Z,7.40
2019-01-16T10:05:14.997Z,7.50
2019-01-16T10:08:02.229Z,7.60
2019-01-16T10:10:56.171Z,7.60
2019-01-16T10:13:45.174Z,7.60
2019-01-16T10:16:35.025Z,7.60
2019-01-16T10:19:13.845Z,7.50
2019-01-16T10:22:10.938Z,7.60
2019-01-16T10:24:56.478Z,7.50
2019-01-16T10:27:42.730Z,7.60
2019-01-16T10:30:31.130Z,7.60
2019-01-16T10:33:15.815Z,7.60
2019-01-16T10:36:05.564Z,7.60
2019-01-16T10:38:58.520Z,7.60
2019-01-16T10:41:44.287Z,7.50
2019-01-16T10:48:08.975Z,7.60
2019-01-16T10:51:23.473Z,7.60
2019-01-16T10:54:10.724Z,7.70
2019-01-16T10:56:56.515Z,7.40
2019-01-16T10:59:45.648Z,7.40
2019-01-16T11:02:24.532Z,7.50
2019-01-16T11:05:19.427Z,7.50
2019-01-16T11:07:55.520Z,7.50
2019-01-16T11:10:41.638Z,7.50
2019-01-16T11:13:34.827Z,7.50
2019-01-16T11:16:22.314Z,7.60
2019-01-16T11:19:06.896Z,7.60
2019-01-16T11:21:56.975Z,7.50
2019-01-16T11:24:43.107Z,7.40
2019-01-16T11:27:45.828Z,7.50
2019-01-16T11:30:31.903Z,7.60
2019-01-16T11:33:31.406Z,7.60
2019-01-16T11:36:17.526Z,7.70
2019-01-16T11:39:08.544Z,7.70
2019-01-16T11:41:58.101Z,7.80
2019-01-16T11:44:49.955Z,7.70
2019-01-16T11:47:31.356Z,7.80
2019-01-16T11:50:21.651Z,7.70
2019-01-16T11:52:59.625Z,7.90
2019-01-16T11:55:45.160Z,7.90
2019-01-16T11:58:25.412Z,7.80
2019-01-16T12:01:10.970Z,7.80
2019-01-16T12:03:57.600Z,7.90
2019-01-16T12:07:02.580Z,7.90
2019-01-16T12:09:48.149Z,7.90
2019-01-16T12:12:43.713Z,8.00
2019-01-16T12:15:39.949Z,7.90
2019-01-16T12:18:36.155Z,7.90
2019-01-16T12:21:32.346Z,8.00
2019-01-16T12:24:25.594Z,8.00
2019-01-16T12:27:11.709Z,7.90
2019-01-16T12:30:14.229Z,8.00
2019-01-16T12:33:16.460Z,7.90
2019-01-16T12:36:06.304Z,8.00
2019-01-16T12:38:52.172Z,8.00
2019-01-16T12:41:34.202Z,8.00
2019-01-16T12:44:39.831Z,8.00
2019-01-16T12:47:17.690Z,8.10
2019-01-16T12:49:59.258Z,8.00
2019-01-16T12:52:53.951Z,8.10
2019-01-16T12:55:38.684Z,8.10
2019-01-16T12:58:24.503Z,8.00
2019-01-16T13:01:20.635Z,8.10
2019-01-16T13:04:13.523Z,8.10
2019-01-16T13:07:00.475Z,8.00
2019-01-16T13:09:47.668Z,7.90
2019-01-16T13:12:53.182Z,7.90
2019-01-16T13:15:43.232Z,8.00
2019-01-16T13:18:26.092Z,7.90
2019-01-16T13:21:11.944Z,7.80
2019-01-16T13:23:59.111Z,7.80
2019-01-16T13:26:44.946Z,7.80
2019-01-16T13:29:30.565Z,7.90
2019-01-16T13:32:16.261Z,7.90
2019-01-16T13:35:12.465Z,7.90
2019-01-16T13:38:08.477Z,7.90
2019-01-16T13:40:48.427Z,8.00
2019-01-16T13:43:44.368Z,8.00
2019-01-16T13:46:31.669Z,8.00
2019-01-16T13:49:18.875Z,8.00
2019-01-16T13:52:08.938Z,8.00
2019-01-16T13:55:14.454Z,8.00
2019-01-16T13:58:07.767Z,8.00
2019-01-16T14:00:51.467Z,7.80
2019-01-16T14:03:27.968Z,7.80
2019-01-16T14:06:15.231Z,7.80
2019-01-16T14:09:02.444Z,7.80
2019-01-16T14:12:02.419Z,7.90
2019-01-16T14:14:44.164Z,7.90
2019-01-16T14:17:49.669Z,7.90
2019-01-16T14:20:33.383Z,7.90
2019-01-16T14:23:11.223Z,7.90
2019-01-16T14:26:10.135Z,7.90
2019-01-16T14:28:55.847Z,7.90
2019-01-16T14:31:34.078Z,7.90
2019-01-16T14:34:20.060Z,7.90
2019-01-16T14:37:02.590Z,7.90
2019-01-16T14:39:48.132Z,7.90
2019-01-16T14:42:25.954Z,7.90
2019-01-16T14:45:22.070Z,7.80
2019-01-16T14:48:02.580Z,7.90
2019-01-16T14:50:49.808Z,7.80
2019-01-16T14:53:39.990Z,7.90
2019-01-16T14:56:29.940Z,7.90
2019-01-16T14:59:13.167Z,7.90
2019-01-16T15:01:59.032Z,7.80
2019-01-16T15:04:47.406Z,7.80
2019-01-16T15:07:43.863Z,7.80
2019-01-16T15:10:30.042Z,7.80
2019-01-16T15:13:22.965Z,7.70
2019-01-16T15:16:09.599Z,7.70
2019-01-16T15:19:12.199Z,7.60
2019-01-16T15:21:49.977Z,7.60
2019-01-16T15:24:32.867Z,7.60
2019-01-16T15:27:18.673Z,7.60
2019-01-16T15:30:04.523Z,7.60
2019-01-16T15:32:45.783Z,7.70
2019-01-16T15:35:35.711Z,7.70
2019-01-16T15:38:21.555Z,7.80
2019-01-16T15:41:07.611Z,7.70
2019-01-16T15:43:43.132Z,7.60
2019-01-16T15:46:30.259Z,7.60
2019-01-16T15:49:11.612Z,7.70
2019-01-16T15:51:53.323Z,7.60
2019-01-16T15:54:39.473Z,7.60
2019-01-16T15:57:29.681Z,7.50
2019-01-16T16:00:22.937Z,7.50
2019-01-16T16:03:13.194Z,7.50
2019-01-16T16:06:05.563Z,7.50
2019-01-16T16:08:51.535Z,7.50
2019-01-16T16:11:38.721Z,7.50
2019-01-16T16:14:32.004Z,7.50
2019-01-16T16:17:28.543Z,7.50
2019-01-16T16:20:18.259Z,7.50
2019-01-16T16:23:01.960Z,7.50
2019-01-16T16:25:38.538Z,7.40
2019-01-16T16:28:24.353Z,7.40
2019-01-16T16:31:01.708Z,7.40
2019-01-16T16:33:49.168Z,7.30
2019-01-16T16:36:48.453Z,7.30
2019-01-16T16:39:41.243Z,7.30
2019-01-16T16:42:31.683Z,7.30
2019-01-16T16:45:15.387Z,7.20
2019-01-16T16:48:05.456Z,7.20
2019-01-16T16:50:50.450Z,7.30
2019-01-16T16:53:46.471Z,7.30
2019-01-16T16:56:27.539Z,7.30
2019-01-16T16:59:10.976Z,7.30
2019-01-16T17:01:56.543Z,7.30
2019-01-16T17:04:38.727Z,7.30
2019-01-16T17:07:30.217Z,7.20
2019-01-16T17:10:09.073Z,7.20
2019-01-16T17:12:55.886Z,7.20
2019-01-16T17:15:42.016Z,7.20
2019-01-16T17:18:32.779Z,7.10
2019-01-16T17:21:13.430Z,7.10
2019-01-16T17:24:06.478Z,7.10
2019-01-16T17:26:56.785Z,7.20
2019-01-16T17:29:42.648Z,7.10
2019-01-16T17:32:49.484Z,7.10
2019-01-16T17:35:45.018Z,7.10
2019-01-16T17:38:21.098Z,7.10
2019-01-16T17:41:10.602Z,7.10
2019-01-16T17:44:03.230Z,7.10
2019-01-16T17:47:05.486Z,6.90
2019-01-16T17:49:52.687Z,7.00
2019-01-16T17:52:39.160Z,6.90
2019-01-16T17:55:47.695Z,6.90
2019-01-16T17:58:34.701Z,6.90
2019-01-16T18:01:20.358Z,6.90
2019-01-16T18:04:05.105Z,6.90
2019-01-16T18:06:58.160Z,6.90
2019-01-16T18:09:48.113Z,6.90
2019-01-16T18:12:50.446Z,6.90
2019-01-16T18:15:36.499Z,6.90
2019-01-16T18:18:22.797Z,6.90
2019-01-16T18:21:03.395Z,6.90
2019-01-16T18:23:59.547Z,6.90
2019-01-16T18:26:45.701Z,6.90
2019-01-16T18:29:25.100Z,7.00
2019-01-16T18:32:10.958Z,7.00
2019-01-16T18:35:03.853Z,7.00
2019-01-16T18:38:00.783Z,7.00
2019-01-16T18:40:39.059Z,7.00
2019-01-16T18:43:24.788Z,6.90
2019-01-16T18:46:19.466Z,6.80
2019-01-16T18:48:58.755Z,6.80
2019-01-16T18:51:39.609Z,6.80
2019-01-16T18:54:25.651Z,6.80
2019-01-16T18:57:30.914Z,6.70
2019-01-16T19:00:26.142Z,6.80
2019-01-16T19:03:19.093Z,6.70
2019-01-16T19:06:05.169Z,6.80
2019-01-16T19:08:58.124Z,6.70
2019-01-16T19:11:44.831Z,6.70
2019-01-16T19:14:31.061Z,6.70
2019-01-16T19:17:25.093Z,6.60
2019-01-16T19:20:11.447Z,6.60
2019-01-16T19:22:44.482Z,6.60
2019-01-16T19:25:27.682Z,6.60
2019-01-16T19:28:13.580Z,6.50
2019-01-16T19:31:19.269Z,6.50
2019-01-16T19:34:12.330Z,6.50
2019-01-16T19:37:05.601Z,6.40
2019-01-16T19:39:58.793Z,6.40
2019-01-16T19:42:46.150Z,6.50
2019-01-16T19:45:29.450Z,6.50
2019-01-16T19:48:06.971Z,6.40
2019-01-16T19:50:56.903Z,6.40
2019-01-16T19:53:44.250Z,6.40
2019-01-16T19:56:44.027Z,6.40
2019-01-16T19:59:20.594Z,6.40
2019-01-16T20:02:06.481Z,6.40
2019-01-16T20:04:52.475Z,6.40
2019-01-16T20:07:47.368Z,6.30
2019-01-16T20:10:26.960Z,6.40
2019-01-16T20:13:12.429Z,6.40
2019-01-16T20:15:52.718Z,6.30
2019-01-16T20:18:29.602Z,6.30
2019-01-16T20:21:11.470Z,6.30
2019-01-16T20:23:58.671Z,6.30
2019-01-16T20:26:35.880Z,6.20
2019-01-16T20:29:18.312Z,6.20
2019-01-16T20:32:01.501Z,6.20
2019-01-16T20:35:09.637Z,6.20
2019-01-16T20:37:52.950Z,6.20
2019-01-16T20:40:29.923Z,6.20
2019-01-16T20:43:29.229Z,6.20
2019-01-16T20:46:15.612Z,6.10
2019-01-16T20:48:57.807Z,6.10
2019-01-16T20:51:50.110Z,6.10
2019-01-16T20:54:30.136Z,6.00
2019-01-16T20:57:23.182Z,6.00
2019-01-16T21:00:02.312Z,6.00
2019-01-16T21:02:49.782Z,6.00
2019-01-16T21:05:49.588Z,6.00
2019-01-16T21:08:39.574Z,6.00
2019-01-16T21:11:25.237Z,6.00
2019-01-16T21:14:24.272Z,5.90
2019-01-16T21:17:29.510Z,5.90
2019-01-16T21:20:05.648Z,5.80
2019-01-16T21:22:49.314Z,5.80
2019-01-16T21:25:35.338Z,5.90
2019-01-16T21:28:21.339Z,5.90
2019-01-16T21:31:23.186Z,5.80
2019-01-16T21:34:13.098Z,5.90
2019-01-16T21:36:58.935Z,5.80
2019-01-16T21:39:44.754Z,5.80
2019-01-16T21:42:37.951Z,5.80
2019-01-16T21:45:24.476Z,5.70
2019-01-16T21:48:10.276Z,5.60
2019-01-16T21:50:52.503Z,5.60
2019-01-16T21:53:30.471Z,5.60
2019-01-16T21:56:12.976Z,5.50
2019-01-16T21:58:51.206Z,5.40
2019-01-16T22:01:32.883Z,5.40
2019-01-16T22:04:13.769Z,5.40
2019-01-16T22:06:57.795Z,5.40
2019-01-16T22:09:39.299Z,5.30
2019-01-16T22:12:24.504Z,5.40
2019-01-16T22:15:10.419Z,5.40
2019-01-16T22:17:47.767Z,5.30
2019-01-16T22:20:33.607Z,5.20
2019-01-16T22:23:24.345Z,5.10
2019-01-16T22:26:14.534Z,5.20
2019-01-16T22:29:00.317Z,5.10
2019-01-16T22:31:45.483Z,5.10
2019-01-16T22:34:25.633Z,5.00
2019-01-16T22:37:01.892Z,5.00
2019-01-16T22:39:55.067Z,5.00
2019-01-16T22:42:41.113Z,5.00
2019-01-16T22:45:35.283Z,5.10
2019-01-16T22:48:37.750Z,5.10
2019-01-16T22:51:31.657Z,5.10
2019-01-16T22:54:17.378Z,5.00
2019-01-16T22:57:09.907Z,4.90
2019-01-16T22:59:59.947Z,4.90
2019-01-16T23:02:53.181Z,4.90
2019-01-16T23:05:46.133Z,4.80
2019-01-16T23:08:32.207Z,4.80
2019-01-16T23:11:22.207Z,4.80
2019-01-16T23:14:12.219Z,4.80
2019-01-16T23:17:05.776Z,4.80
2019-01-16T23:19:47.106Z,4.80
2019-01-16T23:22:37.100Z,4.70
2019-01-16T23:25:22.006Z,4.70
2019-01-16T23:28:12.925Z,4.80
2019-01-16T23:31:06.146Z,4.80
2019-01-16T23:33:53.797Z,4.90
2019-01-16T23:36:42.021Z,4.70
2019-01-16T23:39:34.999Z,4.70
2019-01-16T23:42:31.336Z,4.50
2019-01-16T23:45:10.814Z,4.60
2019-01-16T23:48:10.054Z,4.60
2019-01-16T23:50:55.056Z,4.60
2019-01-16T23:53:49.365Z,4.60
2019-01-16T23:56:29.704Z,4.50
2019-01-16T23:59:19.674Z,4.50
